Time;durP1;ratioP1;P1;durP2;ratioP2;P2;SDS_P1;SDS_P2;PMS_P1;PMS_P2;Temp;Humidity;BMP_temperature;BMP_pressure;BME280_temperature;BME280_humidity;BME280_pressure;Samples;Min_cycle;Max_cycle;Signal;HPM_P1;HPM_P2
2021/04/12 00:00:36;;;;;;;4.38;2.10;;;4.90;99.90;;;;;;4141143;28;20041;-68
2021/04/12 00:02:41;;;;;;;2.60;1.35;;;4.90;99.90;;;;;;4157578;28;20045;-68
2021/04/12 00:05:24;;;;;;;2.47;1.40;;;4.80;99.90;;;;;;4168493;28;20045;-68
2021/04/12 00:07:33;;;;;;;3.33;1.58;;;4.80;99.90;;;;;;4147692;28;20029;-67
2021/04/12 00:10:00;;;;;;;2.75;1.40;;;4.80;99.90;;;;;;4175206;28;20032;-68
2021/04/12 00:12:17;;;;;;;4.63;1.70;;;4.80;99.90;;;;;;4166058;28;20567;-68
2021/04/12 00:14:27;;;;;;;3.05;1.58;;;4.70;99.90;;;;;;4153541;28;20053;-68
2021/04/12 00:16:48;;;;;;;2.70;1.85;;;4.70;99.90;;;;;;4147200;28;20041;-68
2021/04/12 00:19:01;;;;;;;3.17;1.90;;;4.70;99.90;;;;;;4162029;28;20067;-68
2021/04/12 00:21:25;;;;;;;3.17;1.75;;;4.70;99.90;;;;;;4165440;28;20483;-68
2021/04/12 00:23:52;;;;;;;4.65;2.00;;;4.70;99.90;;;;;;4155404;28;20196;-68
2021/04/12 00:26:02;;;;;;;3.85;1.70;;;4.70;99.90;;;;;;4167348;28;20030;-68
2021/04/12 00:28:21;;;;;;;3.92;1.90;;;4.60;99.90;;;;;;4158983;28;20033;-68
2021/04/12 00:30:50;;;;;;;6.53;1.80;;;4.60;99.90;;;;;;4162387;28;20046;-68
2021/04/12 00:32:58;;;;;;;3.72;1.98;;;4.60;99.90;;;;;;4159718;28;20068;-68
2021/04/12 00:35:25;;;;;;;6.50;2.00;;;4.60;99.90;;;;;;4160614;28;20230;-68
2021/04/12 00:37:42;;;;;;;3.00;1.98;;;4.60;99.90;;;;;;4150265;28;20038;-68
2021/04/12 00:40:13;;;;;;;3.00;1.90;;;4.60;99.90;;;;;;4161471;28;20079;-68
2021/04/12 00:42:32;;;;;;;3.67;1.73;;;4.60;99.90;;;;;;4158376;28;20036;-68
2021/04/12 00:44:51;;;;;;;4.25;1.83;;;4.60;99.90;;;;;;4162134;28;20052;-68
2021/04/12 00:47:29;;;;;;;5.13;2.28;;;4.50;99.90;;;;;;4180064;28;20497;-68
2021/04/12 00:49:45;;;;;;;3.17;2.05;;;4.60;99.90;;;;;;4160747;28;20045;-67
2021/04/12 00:52:05;;;;;;;3.42;2.10;;;4.50;99.90;;;;;;4160643;28;20060;-68
2021/04/12 00:54:51;;;;;;;4.93;2.50;;;4.60;99.90;;;;;;4157994;28;20508;-68
2021/04/12 00:57:02;;;;;;;3.42;1.88;;;4.50;99.90;;;;;;4146460;28;20038;-68
2021/04/12 00:59:25;;;;;;;5.82;2.53;;;4.50;99.90;;;;;;4146374;28;20030;-68
2021/04/12 01:01:46;;;;;;;3.70;2.60;;;4.50;99.90;;;;;;4153990;28;20071;-68
2021/04/12 01:04:12;;;;;;;7.75;2.55;;;4.40;99.90;;;;;;4188655;28;20032;-68
2021/04/12 01:06:49;;;;;;;5.70;2.75;;;4.40;99.90;;;;;;4164303;28;20148;-68
2021/04/12 01:09:05;;;;;;;3.40;2.55;;;4.40;99.90;;;;;;4160579;28;20037;-68
2021/04/12 01:11:09;;;;;;;5.95;3.22;;;4.40;99.90;;;;;;4162579;28;20546;-68
2021/04/12 01:13:27;;;;;;;5.00;2.53;;;4.40;99.90;;;;;;4158640;28;20034;-68
2021/04/12 01:15:35;;;;;;;4.53;2.22;;;4.30;99.90;;;;;;4161176;28;20049;-68
2021/04/12 01:17:56;;;;;;;5.72;2.75;;;4.30;99.90;;;;;;4155793;28;20045;-68
2021/04/12 01:20:31;;;;;;;6.13;2.78;;;4.30;99.90;;;;;;4159863;28;20037;-68
2021/04/12 01:23:02;;;;;;;4.65;2.55;;;4.20;99.90;;;;;;4157116;28;20057;-68
2021/04/12 01:25:43;;;;;;;6.85;2.60;;;4.30;99.90;;;;;;4186649;28;20036;-68
2021/04/12 01:27:50;;;;;;;4.38;2.55;;;4.30;99.90;;;;;;4157871;28;20038;-68
2021/04/12 01:30:15;;;;;;;5.93;2.33;;;4.20;99.90;;;;;;4158242;28;20113;-68
2021/04/12 01:32:39;;;;;;;10.65;3.20;;;4.20;99.90;;;;;;4159201;28;20389;-68
2021/04/12 01:34:45;;;;;;;;;;;4.20;99.90;;;;;;4180554;28;20039;-68
2021/04/12 01:37:19;;;;;;;4.82;2.40;;;4.20;99.90;;;;;;4161196;28;19920;-68
2021/04/12 01:39:53;;;;;;;5.35;2.88;;;4.20;99.90;;;;;;4157373;28;20679;-68
2021/04/12 01:42:06;;;;;;;5.78;2.60;;;4.10;99.90;;;;;;4160416;28;20041;-68
2021/04/12 01:44:17;;;;;;;4.55;2.20;;;4.20;99.90;;;;;;4179457;28;20065;-68
2021/04/12 01:46:28;;;;;;;6.13;2.83;;;4.20;99.90;;;;;;4157297;28;20041;-68
2021/04/12 01:48:45;;;;;;;5.30;2.53;;;4.20;99.90;;;;;;4155867;28;20049;-68
2021/04/12 01:51:08;;;;;;;4.28;2.08;;;4.20;99.90;;;;;;4162633;28;20048;-68
2021/04/12 01:53:23;;;;;;;4.40;2.80;;;4.20;99.90;;;;;;4157997;28;20045;-68
2021/04/12 01:56:00;;;;;;;3.30;2.33;;;4.30;99.90;;;;;;4160864;28;20044;-68
2021/04/12 01:58:25;;;;;;;4.47;2.30;;;4.20;99.90;;;;;;4159527;28;20049;-68
2021/04/12 02:00:34;;;;;;;4.00;2.55;;;4.20;99.90;;;;;;4159794;28;20037;-68
2021/04/12 02:03:11;;;;;;;5.95;2.63;;;4.20;99.90;;;;;;4158893;28;20041;-68
2021/04/12 02:05:32;;;;;;;3.63;2.58;;;4.20;99.90;;;;;;4160011;28;20788;-68
2021/04/12 02:07:38;;;;;;;4.32;2.60;;;4.20;99.90;;;;;;4186450;28;20048;-68
2021/04/12 02:10:00;;;;;;;3.17;2.28;;;4.20;99.90;;;;;;4157939;28;20040;-68
2021/04/12 02:12:14;;;;;;;4.43;2.40;;;4.20;99.90;;;;;;4158491;28;20535;-68
2021/04/12 02:14:24;;;;;;;4.28;2.10;;;4.20;99.90;;;;;;4157599;28;20037;-68
2021/04/12 02:16:45;;;;;;;3.67;2.50;;;4.20;99.90;;;;;;4157160;28;20540;-68
2021/04/12 02:19:00;;;;;;;3.40;2.58;;;4.20;99.90;;;;;;4125837;28;20049;-68
2021/04/12 02:21:19;;;;;;;4.78;2.80;;;4.20;99.90;;;;;;4179962;28;20513;-68
2021/04/12 02:23:40;;;;;;;3.50;2.78;;;4.20;99.90;;;;;;4156989;28;20044;-68
2021/04/12 02:26:01;;;;;;;3.70;2.45;;;4.10;99.90;;;;;;4156576;28;20107;-68
2021/04/12 02:28:29;;;;;;;4.55;2.92;;;4.10;99.90;;;;;;4188067;28;20040;-68
2021/04/12 02:31:24;;;;;;;4.60;2.33;;;4.10;99.90;;;;;;4156701;28;20087;-68
2021/04/12 02:33:44;;;;;;;4.05;2.40;;;4.10;99.90;;;;;;4147589;28;20718;-68
2021/04/12 02:36:00;;;;;;;3.80;2.38;;;4.10;99.90;;;;;;4157984;28;20044;-68
2021/04/12 02:38:23;;;;;;;4.78;2.58;;;4.10;99.90;;;;;;4159111;28;20488;-68
2021/04/12 02:40:36;;;;;;;2.97;2.40;;;4.10;99.90;;;;;;4156212;28;20034;-69
2021/04/12 02:42:49;;;;;;;4.55;2.70;;;4.10;99.90;;;;;;4159606;28;20033;-68
2021/04/12 02:44:55;;;;;;;4.10;2.65;;;4.10;99.90;;;;;;4146527;28;20045;-68
2021/04/12 02:47:15;;;;;;;4.80;2.65;;;4.10;99.90;;;;;;4159673;28;20053;-68
2021/04/12 02:50:03;;;;;;;4.47;2.75;;;4.00;99.90;;;;;;4158581;28;20478;-68
2021/04/12 02:52:31;;;;;;;4.20;2.90;;;4.00;99.90;;;;;;4155415;28;20038;-68
2021/04/12 02:54:31;;;;;;;6.50;2.72;;;4.00;99.90;;;;;;4159998;28;20056;-68
2021/04/12 02:56:55;;;;;;;6.00;2.53;;;4.00;99.90;;;;;;4178452;28;20044;-68
2021/04/12 02:59:23;;;;;;;5.07;2.70;;;4.00;99.90;;;;;;4157895;28;20042;-68
2021/04/12 03:01:57;;;;;;;7.13;2.65;;;4.00;99.90;;;;;;4161171;28;20034;-68
2021/04/12 03:04:03;;;;;;;5.55;2.70;;;4.00;99.90;;;;;;4161704;28;20433;-68
2021/04/12 03:06:28;;;;;;;6.25;2.78;;;4.00;99.90;;;;;;4160248;28;20040;-68
2021/04/12 03:09:02;;;;;;;7.53;3.30;;;4.00;99.90;;;;;;4162159;28;20670;-68
2021/04/12 03:11:32;;;;;;;7.40;3.30;;;4.00;99.90;;;;;;4179715;28;20602;-68
2021/04/12 03:14:01;;;;;;;4.32;2.65;;;3.90;99.90;;;;;;4160903;28;20137;-68
2021/04/12 03:16:28;;;;;;;5.55;3.03;;;3.80;99.90;;;;;;4160257;28;20084;-68
2021/04/12 03:18:57;;;;;;;6.20;3.10;;;3.80;99.90;;;;;;4159811;28;20053;-68
2021/04/12 03:21:16;;;;;;;5.85;3.08;;;3.90;99.90;;;;;;4161432;28;20042;-68
2021/04/12 03:23:23;;;;;;;4.72;2.78;;;3.80;99.90;;;;;;4182388;28;20131;-68
2021/04/12 03:25:44;;;;;;;4.70;3.10;;;3.80;99.90;;;;;;4158323;28;20116;-69
2021/04/12 03:28:24;;;;;;;7.00;3.45;;;3.80;99.90;;;;;;4161039;28;20584;-68
2021/04/12 03:30:55;;;;;;;5.75;3.10;;;3.80;99.90;;;;;;4140843;28;20493;-68
2021/04/12 03:33:27;;;;;;;3.78;2.75;;;3.80;99.90;;;;;;4132003;28;20163;-68
2021/04/12 03:35:55;;;;;;;7.28;3.17;;;3.80;99.90;;;;;;4151088;28;20026;-68
2021/04/12 03:38:03;;;;;;;4.28;3.15;;;3.80;99.90;;;;;;4184049;28;20634;-68
2021/04/12 03:40:07;;;;;;;5.03;3.40;;;3.80;99.90;;;;;;4159866;28;20032;-68
2021/04/12 03:42:22;;;;;;;6.43;4.35;;;3.80;99.90;;;;;;4168721;28;20493;-68
2021/04/12 03:44:41;;;;;;;9.18;4.25;;;3.80;99.90;;;;;;4157757;28;20435;-68
2021/04/12 03:47:09;;;;;;;5.90;3.65;;;3.80;99.90;;;;;;4158569;28;20121;-68
2021/04/12 03:49:31;;;;;;;10.18;3.92;;;3.70;99.90;;;;;;4160552;28;20508;-68
2021/04/12 03:52:07;;;;;;;8.68;3.70;;;3.80;99.90;;;;;;4187838;28;20036;-68
2021/04/12 03:54:27;;;;;;;9.38;4.20;;;3.70;99.90;;;;;;4152079;28;20099;-68
2021/04/12 03:57:04;;;;;;;6.22;3.67;;;3.70;99.90;;;;;;4161059;28;20082;-68
2021/04/12 03:59:23;;;;;;;5.90;3.63;;;3.70;99.90;;;;;;4169744;28;20139;-68
2021/04/12 04:01:46;;;;;;;4.57;3.65;;;3.70;99.90;;;;;;4150795;28;20529;-68
2021/04/12 04:04:05;;;;;;;;;;;3.80;99.90;;;;;;4194488;28;20691;-68
2021/04/12 04:06:11;;;;;;;6.68;3.80;;;3.70;99.90;;;;;;4160777;28;19909;-68
2021/04/12 04:08:12;;;;;;;6.57;4.03;;;3.70;99.90;;;;;;4170726;28;20040;-68
2021/04/12 04:10:34;;;;;;;6.60;4.30;;;3.70;99.90;;;;;;4160506;28;20045;-68
2021/04/12 04:13:05;;;;;;;5.85;3.70;;;3.70;99.90;;;;;;4161394;28;20052;-68
2021/04/12 04:15:17;;;;;;;8.40;4.03;;;3.60;99.90;;;;;;4166386;28;20044;-68
2021/04/12 04:17:39;;;;;;;11.13;4.10;;;3.70;99.90;;;;;;4198893;28;20024;-68
2021/04/12 04:20:17;;;;;;;7.95;4.07;;;3.60;99.90;;;;;;4163110;28;20041;-68
2021/04/12 04:22:46;;;;;;;12.45;4.30;;;3.60;99.90;;;;;;4150336;28;20140;-68
2021/04/12 04:25:14;;;;;;;8.70;4.53;;;3.60;99.90;;;;;;4162690;28;20052;-68
2021/04/12 04:27:17;;;;;;;5.03;3.53;;;3.60;99.90;;;;;;4152373;28;20053;-68
2021/04/12 04:29:59;;;;;;;9.38;4.25;;;3.60;99.90;;;;;;4162607;28;20480;-68
2021/04/12 04:32:06;;;;;;;9.90;4.55;;;3.60;99.90;;;;;;4154686;28;20628;-68
2021/04/12 04:34:32;;;;;;;6.68;4.25;;;3.60;99.90;;;;;;4159670;28;20044;-68
2021/04/12 04:36:54;;;;;;;8.35;3.90;;;3.60;99.90;;;;;;4169830;28;20358;-68
2021/04/12 04:39:17;;;;;;;7.47;3.97;;;3.50;99.90;;;;;;4166186;28;20041;-68
2021/04/12 04:41:38;;;;;;;6.15;3.83;;;3.50;99.90;;;;;;4188242;28;20794;-68
2021/04/12 04:43:45;;;;;;;7.53;4.35;;;3.50;99.90;;;;;;4162995;28;20116;-68
2021/04/12 04:46:15;;;;;;;9.38;4.15;;;3.50;99.90;;;;;;4160236;28;20700;-68
2021/04/12 04:48:53;;;;;;;10.13;4.57;;;3.50;99.90;;;;;;4157854;28;20148;-68
2021/04/12 04:50:56;;;;;;;8.88;4.57;;;3.50;99.90;;;;;;4161339;28;20030;-68
2021/04/12 04:53:25;;;;;;;5.57;3.97;;;3.50;99.90;;;;;;4168695;28;20048;-68
2021/04/12 04:55:47;;;;;;;6.30;4.22;;;3.40;99.90;;;;;;4150844;28;20037;-68
2021/04/12 04:58:21;;;;;;;8.77;4.25;;;3.40;99.90;;;;;;4159405;28;20038;-68
2021/04/12 05:00:38;;;;;;;7.85;4.45;;;3.40;99.90;;;;;;4147961;28;20037;-68
2021/04/12 05:02:50;;;;;;;5.68;3.97;;;3.40;99.90;;;;;;4159519;28;20037;-68
2021/04/12 05:05:36;;;;;;;6.97;4.57;;;3.40;99.90;;;;;;4168030;28;20117;-68
2021/04/12 05:08:04;;;;;;;6.80;4.40;;;3.40;99.90;;;;;;4102208;28;20479;-68
2021/04/12 05:10:35;;;;;;;8.27;4.43;;;3.40;99.90;;;;;;4168109;28;20512;-68
2021/04/12 05:12:38;;;;;;;6.68;4.18;;;3.30;99.90;;;;;;4160255;28;20030;-68
2021/04/12 05:14:44;;;;;;;4.63;3.53;;;3.30;99.90;;;;;;4162777;28;20029;-68
2021/04/12 05:16:45;;;;;;;8.63;4.32;;;3.40;99.90;;;;;;4176483;28;20428;-68
2021/04/12 05:18:54;;;;;;;6.22;4.40;;;3.40;99.90;;;;;;4168357;28;20033;-68
2021/04/12 05:21:08;;;;;;;6.18;3.63;;;3.30;99.90;;;;;;4165447;28;20611;-68
2021/04/12 05:23:36;;;;;;;6.35;3.92;;;3.30;99.90;;;;;;4155371;28;20056;-68
2021/04/12 05:26:04;;;;;;;8.50;4.68;;;3.40;99.90;;;;;;4158168;28;20086;-68
2021/04/12 05:28:31;;;;;;;8.20;4.20;;;3.40;99.90;;;;;;4161397;28;20044;-68
2021/04/12 05:30:44;;;;;;;7.18;3.85;;;3.40;99.90;;;;;;4165500;28;20525;-68
2021/04/12 05:33:08;;;;;;;6.15;4.15;;;3.50;99.90;;;;;;4161712;28;20095;-68
2021/04/12 05:35:23;;;;;;;5.68;3.70;;;3.50;99.90;;;;;;4177062;28;20064;-68
2021/04/12 05:37:33;;;;;;;7.40;4.25;;;3.50;99.90;;;;;;4159953;28;20026;-68
2021/04/12 05:40:00;;;;;;;8.80;4.22;;;3.50;99.90;;;;;;4166643;28;20036;-68
2021/04/12 05:42:12;;;;;;;8.48;4.38;;;3.50;99.90;;;;;;4182267;28;20374;-68
2021/04/12 05:44:46;;;;;;;7.07;4.33;;;3.50;99.90;;;;;;4158893;28;20057;-68
2021/04/12 05:47:10;;;;;;;6.40;3.35;;;3.60;99.90;;;;;;4143550;28;20030;-68
2021/04/12 05:49:39;;;;;;;6.85;3.85;;;3.60;99.90;;;;;;4157517;28;20033;-68
2021/04/12 05:51:53;;;;;;;5.22;3.75;;;3.60;99.90;;;;;;4169271;28;20120;-68
2021/04/12 05:54:28;;;;;;;7.10;3.83;;;3.60;99.90;;;;;;4160568;28;20034;-68
2021/04/12 05:56:33;;;;;;;8.73;4.35;;;3.60;99.90;;;;;;4181608;28;20412;-68
2021/04/12 05:59:13;;;;;;;7.45;4.32;;;3.60;99.90;;;;;;4194466;28;20032;-68
2021/04/12 06:01:29;;;;;;;7.40;4.43;;;3.70;99.90;;;;;;4174786;28;20043;-68
2021/04/12 06:04:14;;;;;;;7.15;3.95;;;3.70;99.90;;;;;;4163980;28;20033;-68
2021/04/12 06:06:21;;;;;;;6.15;4.18;;;3.70;99.90;;;;;;4163182;28;20041;-68
2021/04/12 06:08:43;;;;;;;7.00;3.95;;;3.80;99.90;;;;;;4160439;28;20154;-68
2021/04/12 06:11:04;;;;;;;6.38;3.72;;;3.80;99.90;;;;;;4158857;28;20032;-68
2021/04/12 06:13:16;;;;;;;5.63;3.47;;;3.90;99.90;;;;;;4162349;28;20508;-68
2021/04/12 06:15:17;;;;;;;6.95;3.92;;;3.90;99.90;;;;;;4160885;28;20108;-68
2021/04/12 06:17:38;;;;;;;6.15;3.55;;;3.90;99.90;;;;;;4168412;28;20091;-68
2021/04/12 06:20:03;;;;;;;5.00;3.78;;;4.00;99.90;;;;;;4185737;28;20516;-69
2021/04/12 06:22:23;;;;;;;8.18;3.58;;;4.00;99.90;;;;;;4165128;28;20033;-69
2021/04/12 06:24:39;;;;;;;7.25;4.03;;;4.10;99.90;;;;;;4159496;28;20038;-70
2021/04/12 06:26:58;;;;;;;7.63;4.28;;;4.10;99.90;;;;;;4162133;28;20067;-70
2021/04/12 06:29:43;;;;;;;6.15;4.00;;;4.10;99.90;;;;;;4170176;28;20108;-70
2021/04/12 06:31:56;;;;;;;7.50;3.90;;;4.10;99.90;;;;;;4133009;28;20125;-70
2021/04/12 06:33:57;;;;;;;6.47;4.15;;;4.20;99.90;;;;;;4142826;28;20520;-70
2021/04/12 06:36:34;;;;;;;6.85;4.10;;;4.20;99.90;;;;;;4161756;28;20991;-70
2021/04/12 06:39:17;;;;;;;6.20;3.60;;;4.20;99.90;;;;;;4153601;28;20045;-70
2021/04/12 06:41:52;;;;;;;6.43;3.80;;;4.20;99.90;;;;;;4156797;28;20038;-70
2021/04/12 06:44:14;;;;;;;5.85;4.15;;;4.30;99.90;;;;;;4158068;28;20041;-70
2021/04/12 06:46:45;;;;;;;6.28;4.22;;;4.30;99.90;;;;;;4159642;28;20527;-70
2021/04/12 06:49:16;;;;;;;5.90;3.75;;;4.30;99.90;;;;;;4158782;28;20082;-70
2021/04/12 06:52:08;;;;;;;5.82;4.43;;;4.40;99.90;;;;;;4157649;28;20068;-70
2021/04/12 06:54:27;;;;;;;8.10;4.00;;;4.40;99.90;;;;;;4162081;28;20053;-70
2021/04/12 06:57:15;;;;;;;5.00;3.72;;;4.40;99.90;;;;;;4168792;28;20093;-70
2021/04/12 06:59:59;;;;;;;7.60;4.50;;;4.40;99.90;;;;;;4107000;28;20053;-70
2021/04/12 07:02:29;;;;;;;;;;;4.50;99.90;;;;;;4172410;28;20225;-70
2021/04/12 07:04:53;;;;;;;7.10;4.50;;;4.50;99.90;;;;;;4134861;28;20424;-70
2021/04/12 07:07:03;;;;;;;5.60;4.18;;;4.60;99.90;;;;;;4173210;28;20044;-70
2021/04/12 07:09:51;;;;;;;7.25;4.75;;;4.60;99.90;;;;;;4160267;28;20044;-70
2021/04/12 07:12:00;;;;;;;6.18;4.28;;;4.60;99.90;;;;;;4160457;28;20038;-71
2021/04/12 07:14:38;;;;;;;6.97;4.28;;;4.70;99.90;;;;;;4159198;28;20080;-70
2021/04/12 07:17:00;;;;;;;5.07;3.63;;;4.70;99.90;;;;;;4182529;28;20424;-70
2021/04/12 07:19:12;;;;;;;6.30;3.92;;;4.70;99.90;;;;;;4157460;28;20041;-70
2021/04/12 07:21:40;;;;;;;7.80;3.95;;;4.80;99.90;;;;;;4176862;28;21321;-70
2021/04/12 07:24:07;;;;;;;6.53;4.07;;;4.80;99.90;;;;;;4157417;28;20128;-70
2021/04/12 07:26:29;;;;;;;9.07;4.35;;;4.80;99.90;;;;;;4183170;28;20127;-70
2021/04/12 07:28:48;;;;;;;6.53;4.10;;;4.90;99.90;;;;;;4158193;28;20045;-70
2021/04/12 07:31:23;;;;;;;6.80;4.05;;;5.00;99.90;;;;;;4159711;28;20041;-70
2021/04/12 07:33:44;;;;;;;5.65;3.40;;;5.10;99.90;;;;;;4152175;28;20030;-70
2021/04/12 07:36:09;;;;;;;5.28;3.50;;;5.20;99.90;;;;;;4158833;28;20030;-70
2021/04/12 07:38:34;;;;;;;5.68;3.58;;;5.20;99.90;;;;;;4181609;28;20219;-70
2021/04/12 07:41:12;;;;;;;7.32;4.50;;;5.30;99.90;;;;;;4146879;28;20025;-70
2021/04/12 07:43:38;;;;;;;7.28;4.25;;;5.40;99.90;;;;;;4158625;28;20056;-70
2021/04/12 07:46:02;;;;;;;5.07;3.05;;;5.70;99.90;;;;;;4161888;28;20025;-70
2021/04/12 07:48:50;;;;;;;5.18;3.70;;;5.80;99.90;;;;;;4159331;28;20543;-69
2021/04/12 07:51:06;;;;;;;5.45;3.50;;;5.90;99.90;;;;;;4156449;28;20037;-70
2021/04/12 07:53:37;;;;;;;8.13;3.47;;;5.90;99.90;;;;;;4159287;28;20128;-70
2021/04/12 07:55:55;;;;;;;10.35;4.05;;;5.90;99.90;;;;;;4160327;28;20608;-70
2021/04/12 07:58:30;;;;;;;10.40;4.13;;;6.00;99.90;;;;;;4162459;28;20055;-70
2021/04/12 08:00:58;;;;;;;5.60;3.50;;;6.00;99.90;;;;;;4161558;28;20109;-70
2021/04/12 08:03:34;;;;;;;5.13;3.53;;;6.00;99.90;;;;;;4164519;28;20048;-67
2021/04/12 08:06:04;;;;;;;5.22;3.38;;;5.90;99.90;;;;;;4155581;28;20029;-67
2021/04/12 08:08:39;;;;;;;9.05;3.90;;;6.00;99.90;;;;;;4159724;28;20025;-67
2021/04/12 08:11:33;;;;;;;5.65;3.08;;;5.90;99.90;;;;;;4163177;28;20044;-67
2021/04/12 08:13:34;;;;;;;;;;;5.90;99.90;;;;;;4117775;28;20122;-67
2021/04/12 08:16:01;;;;;;;6.85;4.35;;;6.00;99.90;;;;;;4142531;28;19944;-67
2021/04/12 08:18:28;;;;;;;10.65;4.40;;;6.00;99.90;;;;;;4123211;28;568880;-67
2021/04/12 08:21:06;;;;;;;6.70;4.32;;;6.00;99.90;;;;;;4162730;28;20516;-67
2021/04/12 08:23:56;;;;;;;10.50;4.75;;;6.00;99.90;;;;;;4155788;28;20044;-67
2021/04/12 08:26:05;;;;;;;5.13;3.40;;;6.00;99.90;;;;;;4142962;28;20034;-67
2021/04/12 08:28:43;;;;;;;5.28;3.72;;;6.10;99.90;;;;;;4164524;28;20466;-67
2021/04/12 08:30:58;;;;;;;8.25;3.30;;;6.20;99.90;;;;;;4161589;28;20092;-67
2021/04/12 08:33:13;;;;;;;7.28;3.25;;;6.20;99.90;;;;;;4167620;28;20055;-67
2021/04/12 08:35:34;;;;;;;5.43;2.92;;;6.30;99.90;;;;;;4170531;28;20501;-67
2021/04/12 08:38:09;;;;;;;5.85;2.92;;;6.30;99.90;;;;;;4150128;28;20041;-67
2021/04/12 08:40:16;;;;;;;6.55;3.30;;;6.40;99.90;;;;;;4166420;28;20025;-67
2021/04/12 08:42:40;;;;;;;4.75;3.10;;;6.50;99.90;;;;;;4160236;28;20033;-67
2021/04/12 08:45:08;;;;;;;5.45;3.28;;;6.60;99.90;;;;;;4182312;28;20136;-67
2021/04/12 08:47:28;;;;;;;5.57;2.95;;;6.70;99.90;;;;;;4195419;28;20419;-67
2021/04/12 08:49:59;;;;;;;5.82;3.10;;;6.80;99.90;;;;;;4158764;28;20036;-67
2021/04/12 08:52:18;;;;;;;7.68;3.72;;;6.90;99.90;;;;;;4171082;28;20460;-67
2021/04/12 08:54:50;;;;;;;3.47;2.40;;;7.00;99.90;;;;;;4170434;28;20594;-67
2021/04/12 08:57:27;;;;;;;4.40;2.22;;;7.00;99.90;;;;;;4180815;28;20090;-67
2021/04/12 09:00:01;;;;;;;5.72;2.47;;;7.10;99.90;;;;;;4161145;28;20026;-67
2021/04/12 09:02:44;;;;;;;4.38;2.33;;;7.30;99.90;;;;;;4164867;28;20059;-67
2021/04/12 09:05:30;;;;;;;2.38;1.63;;;7.40;99.90;;;;;;4144982;28;20032;-67
2021/04/12 09:08:09;;;;;;;4.85;1.92;;;7.50;99.90;;;;;;4166339;28;20502;-67
2021/04/12 09:10:34;;;;;;;6.28;1.80;;;7.70;99.90;;;;;;4164193;28;20037;-67
2021/04/12 09:12:50;;;;;;;3.67;1.52;;;7.80;99.90;;;;;;4154970;28;20474;-67
2021/04/12 09:15:32;;;;;;;2.45;1.50;;;8.00;99.90;;;;;;4159497;28;20037;-67
2021/04/12 09:17:57;;;;;;;2.78;0.90;;;8.10;99.90;;;;;;4161889;28;20120;-67
2021/04/12 09:20:39;;;;;;;5.43;1.33;;;8.30;99.90;;;;;;4163812;28;20114;-67
2021/04/12 09:23:06;;;;;;;3.92;1.42;;;8.40;99.90;;;;;;4113981;28;20030;-67
2021/04/12 09:25:25;;;;;;;4.18;0.90;;;8.60;99.90;;;;;;4098220;28;20061;-67
2021/04/12 09:27:52;;;;;;;2.65;0.90;;;8.70;99.90;;;;;;4133415;28;20565;-67
2021/04/12 09:29:53;;;;;;;4.70;0.80;;;8.80;99.90;;;;;;4157548;28;20426;-67
2021/04/12 09:31:59;;;;;;;5.25;1.20;;;8.90;99.90;;;;;;4156502;28;20036;-67
2021/04/12 09:34:33;;;;;;;3.53;1.05;;;8.90;99.90;;;;;;4157308;28;20370;-67
2021/04/12 09:36:36;;;;;;;;;;;8.90;99.90;;;;;;4161826;28;20034;-67
2021/04/12 09:38:40;;;;;;;;;;;8.80;99.90;;;;;;4162699;28;19920;-67
2021/04/12 09:40:59;;;;;;;;;;;8.90;99.90;;;;;;4166239;28;20337;-67
2021/04/12 09:43:29;;;;;;;3.47;1.30;;;8.90;99.90;;;;;;4166846;28;19909;-67
2021/04/12 09:45:42;;;;;;;1.65;1.10;;;8.80;99.90;;;;;;4148345;28;20394;-67
2021/04/12 09:48:10;;;;;;;1.10;0.60;;;8.80;99.90;;;;;;4155716;28;20043;-67
2021/04/12 09:50:50;;;;;;;2.15;0.90;;;8.90;99.90;;;;;;4157020;28;20560;-67
2021/04/12 09:53:02;;;;;;;3.38;0.75;;;8.90;99.90;;;;;;4158808;28;20041;-67
2021/04/12 09:55:15;;;;;;;2.22;0.77;;;9.10;99.90;;;;;;4159941;28;20501;-67
2021/04/12 09:57:15;;;;;;;1.38;0.90;;;9.10;99.90;;;;;;4166623;28;20440;-67
2021/04/12 09:59:52;;;;;;;2.08;0.80;;;9.10;99.90;;;;;;4169220;28;20036;-67
2021/04/12 10:02:18;;;;;;;4.45;1.60;;;9.10;99.90;;;;;;4157804;28;20041;-67
2021/04/12 10:04:42;;;;;;;2.20;1.10;;;9.00;99.90;;;;;;4157913;28;20110;-67
2021/04/12 10:07:15;;;;;;;2.05;0.80;;;8.40;99.90;;;;;;4155943;28;20040;-67
2021/04/12 10:09:54;;;;;;;2.43;0.90;;;8.10;99.90;;;;;;4129492;28;20034;-67
2021/04/12 10:12:19;;;;;;;3.47;0.70;;;7.50;99.90;;;;;;4127252;28;20294;-66
2021/04/12 10:14:30;;;;;;;1.23;0.80;;;6.70;99.90;;;;;;4154350;28;20085;-67
2021/04/12 10:16:40;;;;;;;1.80;0.98;;;6.30;99.90;;;;;;4162487;28;20452;-67
2021/04/12 10:18:54;;;;;;;3.17;1.15;;;5.90;99.90;;;;;;4168133;28;20071;-67
2021/04/12 10:21:07;;;;;;;3.40;1.10;;;5.60;99.90;;;;;;4182720;28;20067;-67
2021/04/12 10:23:18;;;;;;;1.88;0.90;;;5.30;99.90;;;;;;4158860;28;20108;-67
2021/04/12 10:25:27;;;;;;;1.02;0.70;;;5.20;99.90;;;;;;4156958;28;20057;-67
2021/04/12 10:27:49;;;;;;;1.10;0.47;;;5.10;99.90;;;;;;4159878;28;20467;-67
2021/04/12 10:30:23;;;;;;;1.58;0.95;;;5.20;99.90;;;;;;4160278;28;20029;-67
2021/04/12 10:32:30;;;;;;;2.28;0.77;;;5.20;99.90;;;;;;4146571;28;20398;-67
2021/04/12 10:34:36;;;;;;;1.38;0.50;;;5.20;99.90;;;;;;4191799;28;20436;-67
2021/04/12 10:36:58;;;;;;;0.88;0.47;;;5.10;99.90;;;;;;4167958;28;20037;-67
2021/04/12 10:39:07;;;;;;;1.08;0.38;;;5.20;99.90;;;;;;4171031;28;20025;-67
2021/04/12 10:41:45;;;;;;;0.60;0.40;;;5.20;99.90;;;;;;4157230;28;20386;-67
2021/04/12 10:44:03;;;;;;;1.38;0.73;;;5.30;99.90;;;;;;4132773;28;20100;-67
2021/04/12 10:46:27;;;;;;;1.58;0.93;;;5.30;99.90;;;;;;4160807;28;20674;-67
2021/04/12 10:48:44;;;;;;;2.45;1.00;;;5.20;99.90;;;;;;4159735;28;20049;-67
2021/04/12 10:51:03;;;;;;;3.15;0.90;;;5.10;99.90;;;;;;4166736;28;20037;-67
2021/04/12 10:53:22;;;;;;;1.77;0.95;;;5.00;99.90;;;;;;4157096;28;20034;-66
2021/04/12 10:55:29;;;;;;;3.38;1.20;;;5.10;99.90;;;;;;4164802;28;20671;-67
2021/04/12 10:57:51;;;;;;;1.77;1.10;;;5.00;99.90;;;;;;4171332;28;20073;-67
2021/04/12 11:00:12;;;;;;;1.00;0.90;;;5.10;99.90;;;;;;4168150;28;20034;-66
2021/04/12 11:02:44;;;;;;;2.58;1.20;;;5.10;99.90;;;;;;4156737;28;20045;-67
2021/04/12 11:04:54;;;;;;;1.15;1.05;;;5.20;99.90;;;;;;4155668;28;20041;-67
2021/04/12 11:07:04;;;;;;;2.13;1.13;;;5.30;99.90;;;;;;4163206;28;20548;-67
2021/04/12 11:09:32;;;;;;;1.38;1.00;;;5.30;99.90;;;;;;4163980;28;20095;-67
2021/04/12 11:11:43;;;;;;;4.47;0.77;;;5.30;99.90;;;;;;4177917;28;20033;-67
2021/04/12 11:14:05;;;;;;;2.03;1.10;;;5.40;99.90;;;;;;4168271;28;20317;-67
2021/04/12 11:16:27;;;;;;;0.77;0.73;;;5.30;99.90;;;;;;4168484;28;20045;-67
2021/04/12 11:18:35;;;;;;;2.90;1.50;;;5.30;99.90;;;;;;4153389;28;20037;-67
2021/04/12 11:20:48;;;;;;;2.75;1.17;;;5.30;99.90;;;;;;4182251;28;20371;-67
2021/04/12 11:23:31;;;;;;;2.88;1.20;;;5.40;99.90;;;;;;4162099;28;20025;-67
2021/04/12 11:25:47;;;;;;;2.75;1.58;;;5.60;99.90;;;;;;4163632;28;20037;-67
2021/04/12 11:28:08;;;;;;;3.45;1.50;;;5.60;99.90;;;;;;4166169;28;20388;-67
2021/04/12 11:30:42;;;;;;;2.97;1.30;;;5.80;99.90;;;;;;4159802;28;20494;-67
2021/04/12 11:33:04;;;;;;;3.30;1.35;;;5.90;99.90;;;;;;4162121;28;20048;-67
2021/04/12 11:35:10;;;;;;;1.80;1.52;;;5.90;99.90;;;;;;4193914;28;20079;-67
2021/04/12 11:37:20;;;;;;;3.10;1.85;;;6.10;99.90;;;;;;4165492;28;21501;-67
2021/04/12 11:39:26;;;;;;;2.30;1.70;;;6.30;99.90;;;;;;4158046;28;20045;-67
2021/04/12 11:41:42;;;;;;;2.17;1.75;;;6.40;99.90;;;;;;4164144;28;20069;-67
2021/04/12 11:43:48;;;;;;;3.25;1.83;;;6.50;99.90;;;;;;4158715;28;20049;-67
2021/04/12 11:46:15;;;;;;;4.32;2.25;;;6.70;99.90;;;;;;4159024;28;20053;-67
2021/04/12 11:48:55;;;;;;;3.40;2.00;;;6.80;99.90;;;;;;4158494;28;20049;-67
2021/04/12 11:51:07;;;;;;;5.55;2.08;;;6.90;99.90;;;;;;4135788;28;20030;-67
2021/04/12 11:53:32;;;;;;;3.35;2.10;;;7.10;99.90;;;;;;4160936;28;20424;-67
2021/04/12 11:55:58;;;;;;;2.15;1.90;;;7.20;99.90;;;;;;4139798;28;20029;-67
2021/04/12 11:58:22;;;;;;;3.08;2.03;;;7.40;99.90;;;;;;4131216;28;20052;-67
2021/04/12 12:00:47;;;;;;;3.90;1.90;;;7.50;99.90;;;;;;4147197;28;20033;-67
2021/04/12 12:03:09;;;;;;;3.50;2.38;;;7.60;99.90;;;;;;4157212;28;20037;-67
2021/04/12 12:05:20;;;;;;;2.92;2.20;;;7.80;99.90;;;;;;4160455;28;20076;-67
2021/04/12 12:07:37;;;;;;;2.38;2.00;;;8.00;99.90;;;;;;4160460;28;20667;-66
2021/04/12 12:09:54;;;;;;;5.20;2.67;;;8.10;99.90;;;;;;4159393;28;20311;-67
2021/04/12 12:12:08;;;;;;;5.63;2.50;;;8.20;99.90;;;;;;4170882;28;20470;-67
2021/04/12 12:14:17;;;;;;;4.60;2.13;;;8.30;99.90;;;;;;4158217;28;20025;-67
2021/04/12 12:16:43;;;;;;;6.13;2.00;;;8.40;99.90;;;;;;4159635;28;20046;-66
2021/04/12 12:18:52;;;;;;;2.78;1.67;;;8.30;99.90;;;;;;4159004;28;20045;-66
2021/04/12 12:21:13;;;;;;;2.95;1.38;;;8.30;99.90;;;;;;4170252;28;20037;-67
2021/04/12 12:23:34;;;;;;;3.67;1.77;;;8.20;99.90;;;;;;4172170;28;20033;-67
2021/04/12 12:25:43;;;;;;;3.03;1.67;;;8.10;99.90;;;;;;4184632;28;20040;-67
2021/04/12 12:28:15;;;;;;;3.22;1.60;;;8.10;99.90;;;;;;4193338;28;20442;-66
2021/04/12 12:30:49;;;;;;;6.43;2.05;;;8.00;99.90;;;;;;4172225;28;20115;-67